Time;durP1;ratioP1;P1;durP2;ratioP2;P2;SDS_P1;SDS_P2;PMS_P1;PMS_P2;Temp;Humidity;BMP_temperature;BMP_pressure;BME280_temperature;BME280_humidity;BME280_pressure;Samples;Min_cycle;Max_cycle;Signal;HPM_P1;HPM_P2
2022/06/03 00:01:49;;;;;;;15.00;10.17;;;;;;;12.23;70.86;101876.13;5059552;28;20511;-63
2022/06/03 00:04:30;;;;;;;13.70;10.30;;;;;;;12.12;71.11;101871.59;5059313;28;20440;-64
2022/06/03 00:07:34;;;;;;;14.90;11.03;;;;;;;12.51;70.23;101871.47;5058812;28;20812;-64
2022/06/03 00:10:37;;;;;;;12.87;10.00;;;;;;;12.22;71.03;101866.56;5057221;28;20698;-63
2022/06/03 00:13:23;;;;;;;13.90;11.60;;;;;;;12.37;70.43;101864.25;5059353;28;20431;-63
2022/06/03 00:16:01;;;;;;;17.93;12.53;;;;;;;12.26;70.67;101871.88;5059206;28;20451;-64
2022/06/03 00:18:48;;;;;;;12.67;11.20;;;;;;;11.79;72.07;101876.91;5058754;28;20436;-63
2022/06/03 00:21:45;;;;;;;12.10;10.73;;;;;;;11.99;72.11;101882.63;5059442;28;20486;-63
2022/06/03 00:24:17;;;;;;;13.03;11.50;;;;;;;12.08;71.88;101882.81;5041773;28;20383;-64
2022/06/03 00:27:03;;;;;;;15.60;12.53;;;;;;;12.25;71.30;101877.06;5058468;28;20394;-64
2022/06/03 00:29:41;;;;;;;12.23;10.97;;;;;;;12.13;71.99;101877.69;5059152;28;20391;-63
2022/06/03 00:32:34;;;;;;;13.87;11.07;;;;;;;12.29;71.05;101866.69;5058215;28;20383;-63
2022/06/03 00:35:38;;;;;;;14.23;12.10;;;;;;;12.41;70.64;101868.69;5059027;28;20375;-64
2022/06/03 00:38:34;;;;;;;14.97;11.90;;;;;;;11.95;72.32;101870.34;5043323;28;20423;-64
2022/06/03 00:41:09;;;;;;;12.90;11.50;;;;;;;12.11;71.16;101875.03;5058844;28;20506;-63
2022/06/03 00:43:56;;;;;;;13.30;11.30;;;;;;;12.26;70.89;101871.88;5058525;28;20443;-64
2022/06/03 00:46:58;;;;;;;13.07;10.67;;;;;;;12.01;71.82;101869.56;5058850;28;20410;-63
2022/06/03 00:49:48;;;;;;;11.40;10.20;;;;;;;12.09;71.46;101863.66;5058710;28;20408;-63
2022/06/03 00:52:28;;;;;;;17.10;13.23;;;;;;;11.91;72.29;101873.69;5057839;28;20526;-64
2022/06/03 00:55:15;;;;;;;15.00;10.73;;;;;;;11.80;72.66;101865.63;5058709;28;20394;-63
2022/06/03 00:58:11;;;;;;;15.57;11.57;;;;;;;12.06;72.18;101865.34;5058574;28;20410;-64
2022/06/03 01:00:52;;;;;;;14.00;12.00;;;;;;;11.85;72.89;101868.31;5058107;28;20441;-64
2022/06/03 01:03:24;;;;;;;16.60;11.60;;;;;;;12.23;71.32;101863.97;5057802;28;20394;-63
2022/06/03 01:06:14;;;;;;;16.17;11.97;;;;;;;12.19;71.41;101858.63;5058416;28;20537;-64
2022/06/03 01:08:48;;;;;;;18.03;12.87;;;;;;;12.18;71.59;101867.31;5057762;28;20412;-64
2022/06/03 01:11:19;;;;;;;12.37;11.03;;;;;;;12.35;70.60;101862.44;5058332;28;20739;-64
2022/06/03 01:13:50;;;;;;;13.93;11.70;;;;;;;12.39;70.13;101865.13;5058205;28;20393;-63
2022/06/03 01:16:37;;;;;;;15.10;11.50;;;;;;;12.20;71.05;101873.47;5058077;28;20873;-65
2022/06/03 01:19:15;;;;;;;13.47;12.07;;;;;;;12.17;71.97;101865.56;5058258;28;20452;-64
2022/06/03 01:21:55;;;;;;;14.70;11.00;;;;;;;12.17;71.47;101865.56;5058183;28;20438;-64
2022/06/03 01:24:20;;;;;;;12.90;11.43;;;;;;;11.89;72.05;101871.06;5057404;28;20756;-63
2022/06/03 01:26:54;;;;;;;14.03;11.50;;;;;;;11.69;73.37;101869.69;5058105;28;20504;-64
2022/06/03 01:29:31;;;;;;;12.90;11.50;;;;;;;11.46;74.01;101880.50;5058106;28;20199;-63
2022/06/03 01:31:56;;;;;;;13.47;11.07;;;;;;;11.59;73.96;101873.81;5057295;28;20391;-63
2022/06/03 01:34:33;;;;;;;14.30;12.10;;;;;;;11.82;73.26;101873.47;5057839;28;20499;-64
2022/06/03 01:37:21;;;;;;;13.93;11.47;;;;;;;12.10;71.65;101878.50;5058109;28;20173;-64
2022/06/03 01:40:35;;;;;;;12.37;11.07;;;;;;;11.82;72.45;101878.72;5057343;28;20475;-64
2022/06/03 01:43:09;;;;;;;14.23;11.63;;;;;;;11.59;73.13;101882.53;5054233;28;20801;-63
2022/06/03 01:46:03;;;;;;;14.17;11.80;;;;;;;11.60;73.16;101878.22;5058110;28;20448;-64
2022/06/03 01:48:46;;;;;;;16.10;12.27;;;;;;;11.84;72.56;101871.75;5040371;28;20416;-64
2022/06/03 01:51:38;;;;;;;14.17;11.80;;;;;;;11.79;73.17;101871.69;5057979;28;20419;-63
2022/06/03 01:54:38;;;;;;;15.40;13.77;;;;;;;11.72;73.53;101868.03;5057045;28;20424;-64
2022/06/03 01:57:28;;;;;;;14.43;12.93;;;;;;;11.78;73.15;101868.19;5058030;28;20375;-63
2022/06/03 02:00:18;;;;;;;16.07;13.20;;;;;;;11.91;73.16;101873.69;5057726;28;20442;-64
2022/06/03 02:02:46;;;;;;;18.07;14.37;;;;;;;11.86;73.48;101868.34;5057763;28;20427;-64
2022/06/03 02:05:35;;;;;;;18.30;15.03;;;;;;;11.72;73.71;101878.50;5057606;28;20416;-63
2022/06/03 02:08:45;;;;;;;18.87;14.70;;;;;;;11.87;73.23;101879.69;5057780;28;20814;-64
2022/06/03 02:11:38;;;;;;;15.23;13.13;;;;;;;11.71;74.21;101878.47;5058354;28;20408;-64
2022/06/03 02:14:25;;;;;;;21.00;15.93;;;;;;;11.55;75.04;101877.22;5061546;28;20407;-63
2022/06/03 02:16:53;;;;;;;18.93;16.13;;;;;;;11.36;76.35;101874.13;5061272;28;20475;-65
2022/06/03 02:19:30;;;;;;;17.10;14.07;;;;;;;11.77;75.66;101875.97;5061548;28;20794;-64
2022/06/03 02:22:22;;;;;;;22.60;15.40;;;;;;;11.93;74.53;101871.97;5061449;28;20389;-63
2022/06/03 02:24:56;;;;;;;18.43;15.93;;;;;;;11.87;74.55;101870.13;5060793;28;20408;-63
2022/06/03 02:27:36;;;;;;;19.83;15.30;;;;;;;11.68;75.17;101874.03;5061424;28;20418;-63
2022/06/03 02:30:39;;;;;;;20.50;17.47;;;;;;;11.59;75.06;101874.69;5061344;28;20418;-63
2022/06/03 02:33:26;;;;;;;21.40;16.43;;;;;;;11.46;75.68;101870.91;5061049;28;20374;-63
2022/06/03 02:36:10;;;;;;;19.33;15.07;;;;;;;11.54;75.41;101878.03;5060566;28;20390;-63
2022/06/03 02:38:57;;;;;;;21.07;18.00;;;;;;;11.50;75.52;101870.97;5061109;28;20382;-64
2022/06/03 02:42:00;;;;;;;22.90;18.00;;;;;;;11.46;75.50;101868.31;5061143;28;20423;-62
2022/06/03 02:44:42;;;;;;;21.57;18.70;;;;;;;11.36;75.72;101873.28;5060244;28;20451;-63
2022/06/03 02:47:33;;;;;;;21.00;18.80;;;;;;;11.36;75.30;101871.53;5061246;28;20401;-64
2022/06/03 02:50:16;;;;;;;23.27;17.40;;;;;;;11.53;75.01;101865.81;5040275;28;20474;-64
2022/06/03 02:53:18;;;;;;;21.30;16.00;;;;;;;11.40;75.08;101865.53;5060913;28;20505;-64
2022/06/03 02:56:05;;;;;;;20.97;17.70;;;;;;;11.42;75.25;101862.97;5060159;28;20412;-64
2022/06/03 02:58:55;;;;;;;21.90;17.30;;;;;;;11.24;75.61;101866.00;5060349;28;20435;-64
2022/06/03 03:02:00;;;;;;;23.07;17.40;;;;;;;11.82;73.40;101866.50;5060646;28;20474;-63
2022/06/03 03:05:03;;;;;;;20.00;17.60;;;;;;;10.95;75.97;101867.03;5060843;28;20395;-64
2022/06/03 03:07:47;;;;;;;24.97;18.40;;;;;;;11.34;75.87;101874.94;5060640;28;20498;-64
2022/06/03 03:10:30;;;;;;;21.20;17.20;;;;;;;11.15;75.79;101865.78;5060434;28;20685;-64
2022/06/03 03:13:23;;;;;;;26.70;16.50;;;;;;;11.40;75.67;101867.28;5059768;28;20398;-64
2022/06/03 03:16:13;;;;;;;21.70;18.43;;;;;;;11.24;76.07;101868.63;5060235;28;20424;-64
2022/06/03 03:18:50;;;;;;;24.70;18.50;;;;;;;11.28;76.24;101870.47;5059789;28;20487;-64
2022/06/03 03:21:37;;;;;;;28.40;18.30;;;;;;;11.05;76.34;101869.88;5059647;28;20497;-64
2022/06/03 03:24:17;;;;;;;24.37;17.37;;;;;;;11.19;76.02;101865.91;5060189;28;20491;-64
2022/06/03 03:26:55;;;;;;;21.17;17.80;;;;;;;11.54;75.31;101865.91;5060373;28;20412;-64
2022/06/03 03:29:48;;;;;;;22.63;17.23;;;;;;;11.67;74.48;101867.03;5060384;28;20407;-64
2022/06/03 03:32:19;;;;;;;20.30;16.60;;;;;;;11.61;73.71;101865.19;5059327;28;20395;-64
2022/06/03 03:34:45;;;;;;;19.63;17.43;;;;;;;11.85;73.77;101866.56;5059186;28;20801;-64
2022/06/03 03:37:35;;;;;;;19.53;17.40;;;;;;;11.78;73.62;101869.91;5059911;28;20416;-64
2022/06/03 03:40:19;;;;;;;18.07;16.23;;;;;;;12.30;72.88;101852.78;5059392;28;20220;-64
2022/06/03 03:43:03;;;;;;;18.20;16.37;;;;;;;13.35;68.66;101845.94;5059157;28;20390;-63
2022/06/03 03:46:06;;;;;;;14.57;13.17;;;;;;;14.12;64.96;101849.69;5059952;28;20520;-64
2022/06/03 03:49:05;;;;;;;13.60;11.53;;;;;;;14.77;61.86;101844.31;5060058;28;20378;-65
2022/06/03 03:51:37;;;;;;;13.03;11.30;;;;;;;14.88;61.58;101852.31;5059715;28;20734;-66
2022/06/03 03:54:18;;;;;;;12.13;10.80;;;;;;;15.70;59.87;101864.34;5059790;28;20742;-65
2022/06/03 03:57:07;;;;;;;11.80;10.60;;;;;;;15.95;58.25;101851.38;5059052;28;20502;-63
2022/06/03 03:59:46;;;;;;;11.93;10.17;;;;;;;16.73;55.62;101847.28;5059582;28;20464;-65
2022/06/03 04:02:36;;;;;;;11.93;10.07;;;;;;;16.90;55.11;101856.13;5059602;28;20465;-65
2022/06/03 04:05:13;;;;;;;11.70;9.70;;;;;;;16.83;55.02;101849.94;5059673;28;20446;-65
2022/06/03 04:08:12;;;;;;;10.67;9.67;;;;;;;17.00;54.45;101857.84;5059645;28;20404;-65
2022/06/03 04:11:02;;;;;;;10.73;9.73;;;;;;;17.58;53.74;101850.81;5059167;28;20472;-64
2022/06/03 04:14:05;;;;;;;10.30;9.30;;;;;;;17.12;53.62;101862.25;5059212;28;20511;-64
2022/06/03 04:16:48;;;;;;;10.63;9.53;;;;;;;17.19;54.14;101862.28;5058993;28;20849;-66
2022/06/03 04:19:38;;;;;;;9.60;8.70;;;;;;;17.67;52.74;101865.72;5059195;28;20705;-66
2022/06/03 04:22:15;;;;;;;10.97;9.97;;;;;;;18.41;51.47;101865.53;5059277;28;20846;-65
2022/06/03 04:25:05;;;;;;;11.37;9.77;;;;;;;18.60;50.84;101866.28;5058528;28;20423;-66
2022/06/03 04:27:58;;;;;;;10.60;9.30;;;;;;;19.25;49.50;101860.56;5058509;28;20694;-65
2022/06/03 04:31:11;;;;;;;12.00;8.87;;;;;;;18.98;50.49;101859.94;5059016;28;20438;-65
2022/06/03 04:33:55;;;;;;;10.57;9.57;;;;;;;19.75;48.23;101860.97;5058859;28;20408;-65
2022/06/03 04:36:35;;;;;;;9.57;8.60;;;;;;;19.12;49.39;101870.41;5058775;28;20412;-66
2022/06/03 04:39:38;;;;;;;10.03;9.03;;;;;;;20.68;46.14;101865.16;5058815;28;20408;-65
2022/06/03 04:42:25;;;;;;;9.97;9.17;;;;;;;20.16;47.46;101857.03;5058821;28;20408;-66
2022/06/03 04:45:12;;;;;;;9.97;9.07;;;;;;;20.85;45.83;101863.16;5058829;28;20423;-66
2022/06/03 04:48:11;;;;;;;10.50;9.40;;;;;;;20.21;46.91;101856.09;5058621;28;20455;-66
2022/06/03 04:50:51;;;;;;;10.73;9.57;;;;;;;21.13;45.63;101854.75;5058179;28;20411;-66
2022/06/03 04:53:38;;;;;;;11.17;10.03;;;;;;;21.29;45.33;101847.41;5058455;28;20717;-66
2022/06/03 04:56:21;;;;;;;11.80;10.60;;;;;;;20.11;47.82;101848.25;5058507;28;20408;-65
2022/06/03 04:59:11;;;;;;;12.67;11.00;;;;;;;21.09;46.87;101852.19;5058415;28;20412;-66
2022/06/03 05:01:41;;;;;;;12.87;10.27;;;;;;;21.03;46.22;101848.75;5058522;28;20427;-66
2022/06/03 05:04:18;;;;;;;12.57;11.37;;;;;;;22.27;43.19;101853.53;5058333;28;20879;-67
2022/06/03 05:07:19;;;;;;;11.53;10.33;;;;;;;22.24;42.94;101842.97;5058435;28;20432;-66
2022/06/03 05:09:44;;;;;;;11.33;10.20;;;;;;;21.01;45.23;101849.66;5057558;28;20518;-66
2022/06/03 05:12:36;;;;;;;11.87;10.50;;;;;;;20.50;47.39;101847.78;5058145;28;20455;-66
2022/06/03 05:15:20;;;;;;;11.50;10.30;;;;;;;19.31;49.28;101844.69;5058068;28;20200;-67
2022/06/03 05:17:51;;;;;;;10.20;9.37;;;;;;;21.41;44.12;101843.69;5057947;28;20460;-66
2022/06/03 05:20:34;;;;;;;11.10;10.10;;;;;;;20.95;45.62;101840.03;5057846;28;20869;-65
2022/06/03 05:23:00;;;;;;;11.57;10.40;;;;;;;20.89;45.21;101840.16;5056986;28;20652;-66
2022/06/03 05:26:13;;;;;;;11.50;10.20;;;;;;;21.04;45.61;101841.69;5057949;28;20408;-66
2022/06/03 05:29:11;;;;;;;12.30;10.60;;;;;;;21.60;45.14;101851.34;5021775;28;20189;-66
2022/06/03 05:31:45;;;;;;;11.50;10.40;;;;;;;22.57;42.64;101835.19;5057958;28;20414;-66
2022/06/03 05:34:41;;;;;;;11.80;10.57;;;;;;;21.45;45.09;101847.16;5057955;28;20800;-66
2022/06/03 05:37:09;;;;;;;12.00;10.70;;;;;;;21.73;43.94;101847.56;5057894;28;20424;-66
2022/06/03 05:40:12;;;;;;;12.00;10.83;;;;;;;22.25;42.51;101848.25;5057778;28;20470;-66
2022/06/03 05:43:05;;;;;;;12.40;11.30;;;;;;;22.51;42.34;101846.84;5057674;28;20407;-67
2022/06/03 05:45:57;;;;;;;11.50;10.30;;;;;;;23.37;41.55;101846.56;5056733;28;20444;-66
2022/06/03 05:48:41;;;;;;;11.20;10.07;;;;;;;22.34;41.46;101847.19;5057689;28;20686;-66
2022/06/03 05:51:14;;;;;;;10.63;9.57;;;;;;;22.41;42.35;101845.28;5057777;28;20663;-67
2022/06/03 05:54:14;;;;;;;11.40;10.07;;;;;;;22.49;42.45;101838.91;5040125;28;20729;-66
2022/06/03 05:56:49;;;;;;;12.73;9.90;;;;;;;21.98;42.63;101841.75;5057479;28;20820;-67
2022/06/03 05:59:14;;;;;;;11.37;10.20;;;;;;;19.63;47.37;101848.78;5056799;28;20762;-66
2022/06/03 06:02:18;;;;;;;15.50;10.97;;;;;;;19.61;49.44;101847.03;5057759;28;20499;-66
2022/06/03 06:05:09;;;;;;;12.63;11.27;;;;;;;21.86;43.80;101838.41;5011753;28;20198;-66
2022/06/03 06:07:41;;;;;;;15.40;11.97;;;;;;;23.40;40.58;101832.31;5034800;28;20503;-66
2022/06/03 06:10:16;;;;;;;11.90;10.80;;;;;;;22.79;41.41;101836.44;5024554;28;20847;-66
2022/06/03 06:13:03;;;;;;;12.13;11.03;;;;;;;22.76;41.23;101838.28;5032553;28;20468;-66
2022/06/03 06:15:53;;;;;;;12.70;10.63;;;;;;;23.47;39.28;101826.75;5035553;28;20523;-66
2022/06/03 06:18:38;;;;;;;11.73;10.50;;;;;;;23.20;40.02;101831.03;5036759;28;20429;-66
2022/06/03 06:21:12;;;;;;;11.73;10.00;;;;;;;24.24;38.25;101828.19;5036052;28;20468;-67
2022/06/03 06:23:48;;;;;;;11.07;9.53;;;;;;;23.80;38.66;101826.75;5052314;28;20495;-66
2022/06/03 06:26:27;;;;;;;10.07;9.10;;;;;;;23.49;38.60;101830.25;5036168;28;20496;-66
2022/06/03 06:28:55;;;;;;;9.80;8.90;;;;;;;24.62;37.71;101820.81;5036092;28;20428;-66
2022/06/03 06:31:30;;;;;;;11.97;9.23;;;;;;;24.24;37.32;101828.19;5037467;28;20423;-67
2022/06/03 06:34:22;;;;;;;10.73;9.63;;;;;;;22.39;40.54;101845.31;5031958;28;20444;-66
2022/06/03 06:36:57;;;;;;;11.10;9.50;;;;;;;22.47;41.30;101838.06;5034528;28;20458;-67
2022/06/03 06:39:44;;;;;;;10.17;9.20;;;;;;;24.62;37.36;101826.13;5039089;28;20460;-66
2022/06/03 06:42:12;;;;;;;12.53;9.40;;;;;;;24.76;36.59;101828.34;5039373;28;20756;-67
2022/06/03 06:44:52;;;;;;;10.03;9.13;;;;;;;26.45;34.10;101823.22;5050332;28;20480;-67
2022/06/03 06:47:35;;;;;;;10.37;9.33;;;;;;;25.32;35.76;101827.38;5033923;28;20467;-67
2022/06/03 06:50:11;;;;;;;10.77;9.00;;;;;;;25.63;34.77;101831.66;5039030;28;20436;-67
2022/06/03 06:52:58;;;;;;;12.67;8.83;;;;;;;27.12;32.93;101824.94;5040930;28;20875;-67
2022/06/03 06:55:39;;;;;;;10.17;8.80;;;;;;;24.72;35.69;101830.22;5045380;28;20578;-66
2022/06/03 06:58:18;;;;;;;10.73;8.93;;;;;;;23.85;36.77;101830.13;5055588;28;20449;-67
2022/06/03 07:00:45;;;;;;;12.30;8.40;;;;;;;25.42;34.73;101827.94;5038602;28;20468;-67
2022/06/03 07:03:16;;;;;;;11.13;9.47;;;;;;;25.24;34.15;101818.75;5042155;28;20436;-66
2022/06/03 07:05:51;;;;;;;9.80;8.77;;;;;;;26.64;31.62;101820.66;5041666;28;20513;-69
2022/06/03 07:08:26;;;;;;;11.23;8.40;;;;;;;24.38;35.02;101829.50;5039826;28;20434;-67
2022/06/03 07:10:55;;;;;;;9.43;8.13;;;;;;;25.55;33.38;101829.25;5040385;28;20447;-67
2022/06/03 07:13:28;;;;;;;13.77;8.87;;;;;;;23.00;35.73;101848.34;5046431;28;20435;-67
2022/06/03 07:16:06;;;;;;;10.37;7.80;;;;;;;25.23;33.10;101833.88;5048466;28;20463;-67
2022/06/03 07:21:57;;;;;;;7.97;6.60;;;;;;;24.51;33.44;101834.44;5050974;28;20456;-66
2022/06/03 07:24:39;;;;;;;9.00;5.90;;;;;;;26.20;31.15;101835.75;5041798;28;20416;-67
2022/06/03 07:27:16;;;;;;;6.20;5.63;;;;;;;26.11;30.49;101828.06;5039285;28;20447;-67
2022/06/03 07:30:05;;;;;;;7.80;6.00;;;;;;;26.92;28.09;101822.25;5038770;28;20887;-67
2022/06/03 07:32:44;;;;;;;8.33;5.67;;;;;;;25.52;29.92;101830.22;5037887;28;20876;-68
2022/06/03 07:35:31;;;;;;;5.90;5.20;;;;;;;26.01;28.54;101811.50;5048914;28;20487;-67
2022/06/03 07:38:05;;;;;;;4.93;4.43;;;;;;;26.49;27.16;101800.78;5056157;28;20420;-66
2022/06/03 07:40:38;;;;;;;8.30;5.43;;;;;;;25.64;28.36;101801.31;5038181;28;20783;-67
2022/06/03 07:43:09;;;;;;;6.20;5.03;;;;;;;25.19;28.91;101798.44;5055847;28;20436;-68
2022/06/03 07:45:39;;;;;;;6.70;5.60;;;;;;;26.87;26.88;101801.00;5058421;28;20429;-67
2022/06/03 07:48:10;;;;;;;6.50;5.47;;;;;;;25.72;28.15;101804.56;5043820;28;20754;-67
2022/06/03 07:50:43;;;;;;;6.43;5.53;;;;;;;26.53;25.90;101797.94;5052223;28;20460;-68
2022/06/03 07:53:19;;;;;;;10.77;6.27;;;;;;;27.59;27.21;101797.03;5042561;28;20761;-67
2022/06/03 07:55:51;;;;;;;8.20;6.33;;;;;;;27.02;27.83;101795.03;5041880;28;20814;-66
2022/06/03 07:58:17;;;;;;;7.93;6.47;;;;;;;25.71;30.24;101798.38;5031915;28;20429;-67
2022/06/03 08:00:45;;;;;;;7.63;6.17;;;;;;;25.61;30.53;101790.75;5034327;28;20428;-67
2022/06/03 08:03:15;;;;;;;9.90;6.67;;;;;;;24.73;31.00;101802.66;5038626;28;20167;-67
2022/06/03 08:05:43;;;;;;;10.43;5.90;;;;;;;25.16;30.39;101795.00;5038384;28;20795;-67
2022/06/03 08:10:57;;;;;;;7.33;6.67;;;;;;;26.91;28.34;101799.94;5038408;28;20472;-67
2022/06/03 08:13:31;;;;;;;6.83;5.70;;;;;;;24.28;28.94;101804.03;5038177;28;20433;-66
2022/06/03 08:16:05;;;;;;;8.17;6.27;;;;;;;26.35;27.35;101786.16;5038822;28;20886;-67
2022/06/03 08:18:35;;;;;;;7.53;6.10;;;;;;;27.32;27.54;101788.38;5038782;28;20418;-66
2022/06/03 08:21:05;;;;;;;7.47;5.67;;;;;;;26.95;26.71;101784.63;5038535;28;20409;-67
2022/06/03 08:23:33;;;;;;;8.20;6.00;;;;;;;26.93;26.12;101798.09;5038182;28;20413;-66
2022/06/03 08:26:01;;;;;;;8.17;5.60;;;;;;;27.25;25.78;101797.63;5039134;28;20427;-66
2022/06/03 08:28:31;;;;;;;5.40;4.90;;;;;;;26.21;27.57;101797.41;5038330;28;20499;-66
2022/06/03 08:30:57;;;;;;;7.60;5.83;;;;;;;23.91;31.82;101806.94;5038622;28;20483;-66
2022/06/03 08:33:49;;;;;;;7.33;5.90;;;;;;;26.59;28.45;101802.16;5038041;28;20413;-66
2022/06/03 08:36:18;;;;;;;8.30;5.80;;;;;;;27.92;25.64;101803.59;5039009;28;20431;-67
2022/06/03 08:38:53;;;;;;;6.50;5.73;;;;;;;28.40;24.68;101800.41;5038226;28;20672;-66
2022/06/03 08:41:46;;;;;;;5.73;5.13;;;;;;;27.50;26.26;101798.31;5038051;28;20727;-66
2022/06/03 08:44:40;;;;;;;5.40;4.63;;;;;;;26.42;26.80;101800.16;5038493;28;20401;-66
2022/06/03 08:47:14;;;;;;;6.57;4.87;;;;;;;27.85;24.23;101786.94;5038511;28;20409;-65
2022/06/03 08:49:44;;;;;;;7.10;4.60;;;;;;;23.93;29.74;101805.97;5038533;28;20773;-66
2022/06/03 08:52:11;;;;;;;8.20;4.70;;;;;;;26.48;25.28;101793.66;5038437;28;20491;-66
2022/06/03 08:54:52;;;;;;;5.67;4.20;;;;;;;26.81;25.25;101796.78;5037966;28;20424;-66
2022/06/03 08:57:23;;;;;;;5.97;4.13;;;;;;;27.82;24.61;101790.63;5038624;28;20418;-66
2022/06/03 09:00:13;;;;;;;5.93;4.43;;;;;;;28.82;22.93;101793.03;5038383;28;20516;-66
2022/06/03 09:03:06;;;;;;;6.33;4.30;;;;;;;26.72;25.74;101805.19;5037770;28;20417;-66
2022/06/03 09:05:43;;;;;;;4.70;4.20;;;;;;;26.67;24.73;101805.38;5037582;28;20830;-66
2022/06/03 09:08:17;;;;;;;5.73;4.40;;;;;;;25.78;25.50;101804.38;5038425;28;20443;-66
2022/06/03 09:11:00;;;;;;;6.30;4.53;;;;;;;26.72;25.09;101803.41;5037585;28;20842;-66
2022/06/03 09:13:43;;;;;;;5.20;4.10;;;;;;;25.72;26.06;101804.56;5037538;28;20723;-65
2022/06/03 09:16:10;;;;;;;4.03;3.63;;;;;;;28.03;24.10;101803.97;5037542;28;20923;-66
2022/06/03 09:18:44;;;;;;;6.33;4.20;;;;;;;25.83;27.57;101813.09;5038184;28;20413;-66
2022/06/03 09:21:13;;;;;;;5.10;4.03;;;;;;;27.55;25.36;101798.97;5036807;28;20744;-66
2022/06/03 09:23:44;;;;;;;4.40;3.90;;;;;;;27.85;24.95;101795.81;5037339;28;20837;-66
2022/06/03 09:26:32;;;;;;;4.40;4.00;;;;;;;27.40;25.55;101799.69;5037487;28;20451;-66
2022/06/03 09:28:58;;;;;;;6.43;3.83;;;;;;;28.21;25.59;101789.72;5037630;28;20410;-66
2022/06/03 09:31:24;;;;;;;8.27;3.90;;;;;;;28.19;24.98;101788.91;5037890;28;20881;-66
2022/06/03 09:33:51;;;;;;;4.50;3.90;;;;;;;29.80;22.65;101783.41;5037775;28;20417;-66
2022/06/03 09:36:18;;;;;;;7.93;4.57;;;;;;;27.47;25.10;101793.09;5038408;28;20174;-66
2022/06/03 09:38:57;;;;;;;7.00;4.00;;;;;;;27.07;25.79;101781.44;5037163;28;20421;-67
2022/06/03 09:41:25;;;;;;;7.17;4.00;;;;;;;27.34;26.06;101782.03;5037023;28;20459;-66
2022/06/03 09:43:53;;;;;;;4.60;3.47;;;;;;;28.45;23.22;101776.03;5037024;28;20776;-67
2022/06/03 09:46:20;;;;;;;5.20;3.10;;;;;;;27.61;23.56;101772.84;5037173;28;20417;-66
2022/06/03 09:48:45;;;;;;;5.17;3.20;;;;;;;28.18;23.27;101768.38;5038420;28;20416;-66
2022/06/03 09:51:14;;;;;;;6.33;4.00;;;;;;;28.27;24.13;101768.91;5037030;28;20551;-66
2022/06/03 09:53:43;;;;;;;6.37;4.20;;;;;;;28.22;24.38;101766.44;5037773;28;20185;-67
2022/06/03 09:56:18;;;;;;;4.97;4.00;;;;;;;29.07;23.65;101764.91;5038279;28;20471;-66
2022/06/03 09:58:43;;;;;;;4.73;3.90;;;;;;;28.75;24.10;101759.38;5037066;28;20799;-65
2022/06/03 10:01:09;;;;;;;4.10;3.70;;;;;;;28.50;23.54;101757.91;5037641;28;20436;-67
2022/06/03 10:03:35;;;;;;;5.23;3.70;;;;;;;28.01;25.06;101758.50;5036890;28;20313;-65
2022/06/03 10:06:00;;;;;;;8.97;3.63;;;;;;;28.00;23.40;101754.06;5037701;28;20490;-66
2022/06/03 10:12:48;;;;;;;5.10;3.43;;;;;;;27.74;23.56;101749.91;5037444;28;20593;-66
2022/06/03 10:14:04;;;;;;;4.80;3.40;;;;;;;29.72;21.51;101746.19;5036848;28;20436;-65
2022/06/03 10:16:30;;;;;;;3.63;3.23;;;;;;;28.27;22.94;101742.09;5037321;28;20461;-66
2022/06/03 10:18:58;;;;;;;4.70;3.37;;;;;;;28.32;22.79;101740.03;5036644;28;20174;-66
2022/06/03 10:21:25;;;;;;;6.07;3.60;;;;;;;27.99;23.91;101746.94;5037865;28;20771;-66
2022/06/03 10:23:53;;;;;;;4.90;3.47;;;;;;;27.61;23.40;101743.41;5037388;28;20725;-66
2022/06/03 10:26:35;;;;;;;6.60;3.53;;;;;;;28.87;22.03;101741.78;5037362;28;20416;-66
2022/06/03 10:29:08;;;;;;;3.80;3.30;;;;;;;28.62;22.92;101736.75;5037418;28;20467;-66
2022/06/03 10:31:35;;;;;;;5.67;3.43;;;;;;;29.21;23.24;101738.19;5039334;28;20781;-66
2022/06/03 10:34:22;;;;;;;4.63;3.67;;;;;;;29.39;22.36;101736.38;5041174;28;20405;-65
2022/06/03 10:36:49;;;;;;;3.60;3.23;;;;;;;29.23;22.16;101738.09;5041252;28;20417;-66
2022/06/03 10:39:17;;;;;;;4.90;3.40;;;;;;;28.59;21.06;101731.56;5041134;28;20671;-65
2022/06/03 10:41:48;;;;;;;4.27;3.50;;;;;;;26.85;22.84;101736.00;5023856;28;20508;-65
2022/06/03 10:44:14;;;;;;;5.17;3.53;;;;;;;28.47;21.12;101727.66;5040275;28;20417;-65
2022/06/03 10:47:04;;;;;;;4.67;3.23;;;;;;;27.84;21.43;101728.91;5041068;28;20416;-67
2022/06/03 10:49:32;;;;;;;4.23;3.17;;;;;;;28.08;21.18;101726.00;5040879;28;20444;-66
2022/06/03 11:03:22;;;;;;;5.00;3.20;;;;;;;27.49;20.62;101708.19;5040970;28;20479;-64
2022/06/03 11:05:47;;;;;;;4.07;3.03;;;;;;;26.43;21.93;101711.00;5040900;28;20409;-65
2022/06/03 11:08:13;;;;;;;3.40;2.93;;;;;;;27.59;21.21;101714.00;5040621;28;20478;-65
2022/06/03 11:10:51;;;;;;;3.60;3.10;;;;;;;26.54;21.20;101703.38;5040344;28;20213;-65
2022/06/03 11:13:31;;;;;;;5.17;3.20;;;;;;;27.88;21.12;101699.19;5040258;28;20197;-65
2022/06/03 11:16:12;;;;;;;4.13;3.10;;;;;;;25.84;20.98;101707.97;5040414;28;20488;-65
2022/06/03 11:18:37;;;;;;;4.40;3.33;;;;;;;26.43;21.76;101700.28;5040604;28;20444;-64
2022/06/03 11:21:27;;;;;;;4.00;3.33;;;;;;;27.77;21.48;101688.16;5040438;28;20491;-65
2022/06/03 11:23:53;;;;;;;4.03;3.27;;;;;;;27.67;22.20;101695.75;5039588;28;20457;-65
2022/06/03 11:26:19;;;;;;;3.93;3.33;;;;;;;28.03;21.40;101686.03;5040523;28;20860;-65
2022/06/03 11:28:53;;;;;;;5.70;3.60;;;;;;;27.17;22.55;101690.88;5040291;28;20413;-65
2022/06/03 11:31:22;;;;;;;5.37;3.93;;;;;;;26.38;22.90;101680.88;5039466;28;20218;-64
2022/06/03 11:33:54;;;;;;;5.30;3.73;;;;;;;27.00;25.22;101681.81;5039220;28;20431;-65
2022/06/03 11:36:45;;;;;;;4.30;3.90;;;;;;;26.79;23.05;101674.72;5040083;28;20424;-64
2022/06/03 11:39:20;;;;;;;4.60;3.50;;;;;;;26.79;22.93;101685.44;5039543;28;20409;-64
2022/06/03 11:41:54;;;;;;;5.40;3.57;;;;;;;26.48;22.52;101676.91;5039906;28;20401;-65
2022/06/03 11:44:39;;;;;;;4.80;3.77;;;;;;;26.04;22.60;101676.94;5039021;28;20482;-65
2022/06/03 11:47:11;;;;;;;4.80;3.80;;;;;;;26.21;23.19;101669.09;5039196;28;20668;-64
2022/06/03 11:49:38;;;;;;;3.73;3.43;;;;;;;24.29;24.98;101661.00;5039903;28;20514;-65
2022/06/03 11:52:04;;;;;;;4.13;3.73;;;;;;;24.47;24.90;101665.72;5039646;28;20818;-65
2022/06/03 11:54:29;;;;;;;4.90;3.50;;;;;;;24.78;23.85;101667.38;5039756;28;20412;-66
2022/06/03 11:56:55;;;;;;;3.80;3.40;;;;;;;24.75;23.88;101669.25;5040206;28;20185;-63
2022/06/03 11:59:44;;;;;;;5.27;3.50;;;;;;;24.13;24.89;101658.84;5039833;28;20189;-65
2022/06/03 12:02:34;;;;;;;5.10;3.53;;;;;;;23.42;24.83;101658.38;5039627;28;20177;-65
2022/06/03 12:05:08;;;;;;;4.40;3.67;;;;;;;24.49;23.99;101649.69;5038829;28;20456;-65
2022/06/03 12:07:41;;;;;;;4.03;3.40;;;;;;;24.36;23.60;101650.09;5038783;28;20421;-65
2022/06/03 12:10:42;;;;;;;5.47;3.30;;;;;;;24.14;23.29;101639.31;5039415;28;20476;-65
2022/06/03 12:13:17;;;;;;;4.03;3.37;;;;;;;24.10;23.19;101640.31;5038442;28;20429;-65
2022/06/03 12:15:56;;;;;;;5.43;3.63;;;;;;;24.95;21.78;101633.88;5039296;28;20412;-65
2022/06/03 12:18:37;;;;;;;3.93;3.47;;;;;;;23.69;23.49;101634.47;5039242;28;20455;-65
2022/06/03 12:21:02;;;;;;;3.30;3.00;;;;;;;22.39;24.04;101646.06;5039341;28;20440;-65
2022/06/03 12:23:27;;;;;;;6.80;3.40;;;;;;;24.21;23.13;101630.16;5039104;28;20441;-65
2022/06/03 12:25:55;;;;;;;3.43;2.93;;;;;;;25.00;20.58;101621.25;5039129;28;20174;-64
2022/06/03 12:28:22;;;;;;;3.10;2.80;;;;;;;23.07;22.26;101628.31;5038957;28;20555;-64
2022/06/03 12:30:50;;;;;;;3.97;3.20;;;;;;;22.87;21.91;101627.06;5039232;28;20448;-64
2022/06/03 12:33:23;;;;;;;3.50;3.07;;;;;;;24.19;21.74;101621.38;5038180;28;20425;-65
2022/06/03 12:35:48;;;;;;;3.30;3.00;;;;;;;23.85;20.95;101611.75;5039082;28;20415;-65